sensor_id;sensor_type;location;lat;lon;timestamp;temperature;humidity
68924;DHT22;55961;52.156;20.942;2024-03-08T00:01:35;-0.50;70.10
68924;DHT22;55961;52.156;20.942;2024-03-08T00:04:01;-0.50;70.00
68924;DHT22;55961;52.156;20.942;2024-03-08T00:06:27;-0.50;69.80
68924;DHT22;55961;52.156;20.942;2024-03-08T00:08:53;-0.60;69.80
68924;DHT22;55961;52.156;20.942;2024-03-08T00:11:19;-0.60;70.00
68924;DHT22;55961;52.156;20.942;2024-03-08T00:13:45;-0.60;69.80
68924;DHT22;55961;52.156;20.942;2024-03-08T00:16:10;-0.60;70.10
68924;DHT22;55961;52.156;20.942;2024-03-08T00:18:36;-0.70;70.20
68924;DHT22;55961;52.156;20.942;2024-03-08T00:21:02;-0.70;70.50
68924;DHT22;55961;52.156;20.942;2024-03-08T00:23:28;-0.70;70.30
68924;DHT22;55961;52.156;20.942;2024-03-08T00:25:54;-0.70;70.60
68924;DHT22;55961;52.156;20.942;2024-03-08T00:28:21;-0.80;70.60
68924;DHT22;55961;52.156;20.942;2024-03-08T00:30:47;-0.80;70.40
68924;DHT22;55961;52.156;20.942;2024-03-08T00:33:13;-0.80;70.40
68924;DHT22;55961;52.156;20.942;2024-03-08T00:35:39;-0.80;70.60
68924;DHT22;55961;52.156;20.942;2024-03-08T00:38:05;-0.80;70.50
68924;DHT22;55961;52.156;20.942;2024-03-08T00:40:30;-0.90;70.60
68924;DHT22;55961;52.156;20.942;2024-03-08T00:42:56;-0.90;70.90
68924;DHT22;55961;52.156;20.942;2024-03-08T00:45:22;-0.90;71.10
68924;DHT22;55961;52.156;20.942;2024-03-08T00:47:49;-0.90;71.40
68924;DHT22;55961;52.156;20.942;2024-03-08T00:50:15;-1.00;71.50
68924;DHT22;55961;52.156;20.942;2024-03-08T00:52:41;-1.00;71.10
68924;DHT22;55961;52.156;20.942;2024-03-08T00:55:07;-1.00;71.20
68924;DHT22;55961;52.156;20.942;2024-03-08T00:57:36;-1.00;71.00
68924;DHT22;55961;52.156;20.942;2024-03-08T01:00:03;-1.10;71.10
68924;DHT22;55961;52.156;20.942;2024-03-08T01:02:33;-1.10;71.00
68924;DHT22;55961;52.156;20.942;2024-03-08T01:05:01;-1.10;70.90
68924;DHT22;55961;52.156;20.942;2024-03-08T01:07:27;-1.10;71.20
68924;DHT22;55961;52.156;20.942;2024-03-08T01:09:53;-1.10;71.00
68924;DHT22;55961;52.156;20.942;2024-03-08T01:12:19;-1.20;71.00
68924;DHT22;55961;52.156;20.942;2024-03-08T01:14:45;-1.20;71.00
68924;DHT22;55961;52.156;20.942;2024-03-08T01:17:11;-1.20;71.00
68924;DHT22;55961;52.156;20.942;2024-03-08T01:19:38;-1.30;71.00
68924;DHT22;55961;52.156;20.942;2024-03-08T01:22:04;-1.30;71.40
68924;DHT22;55961;52.156;20.942;2024-03-08T01:24:30;-1.30;71.40
68924;DHT22;55961;52.156;20.942;2024-03-08T01:26:56;-1.30;71.50
68924;DHT22;55961;52.156;20.942;2024-03-08T01:29:22;-1.30;71.80
68924;DHT22;55961;52.156;20.942;2024-03-08T01:31:48;-1.40;72.20
68924;DHT22;55961;52.156;20.942;2024-03-08T01:34:14;-1.40;72.70
68924;DHT22;55961;52.156;20.942;2024-03-08T01:36:40;-1.40;73.00
68924;DHT22;55961;52.156;20.942;2024-03-08T01:39:05;-1.50;72.60
68924;DHT22;55961;52.156;20.942;2024-03-08T01:41:35;-1.50;72.50
68924;DHT22;55961;52.156;20.942;2024-03-08T01:44:02;-1.50;72.40
68924;DHT22;55961;52.156;20.942;2024-03-08T01:46:35;-1.50;72.40
68924;DHT22;55961;52.156;20.942;2024-03-08T01:49:01;-1.50;72.30
68924;DHT22;55961;52.156;20.942;2024-03-08T01:51:28;-1.50;72.20
68924;DHT22;55961;52.156;20.942;2024-03-08T01:53:56;-1.60;72.10
68924;DHT22;55961;52.156;20.942;2024-03-08T01:56:24;-1.60;72.10
68924;DHT22;55961;52.156;20.942;2024-03-08T01:58:51;-1.60;72.00
68924;DHT22;55961;52.156;20.942;2024-03-08T02:01:17;-1.60;72.00
68924;DHT22;55961;52.156;20.942;2024-03-08T02:03:45;-1.60;72.10
68924;DHT22;55961;52.156;20.942;2024-03-08T02:06:12;-1.70;72.10
68924;DHT22;55961;52.156;20.942;2024-03-08T02:08:42;-1.70;71.90
68924;DHT22;55961;52.156;20.942;2024-03-08T02:11:09;-1.70;72.40
68924;DHT22;55961;52.156;20.942;2024-03-08T02:13:35;-1.70;72.40
68924;DHT22;55961;52.156;20.942;2024-03-08T02:16:08;-1.80;72.70
68924;DHT22;55961;52.156;20.942;2024-03-08T02:18:34;-1.80;72.40
68924;DHT22;55961;52.156;20.942;2024-03-08T02:21:01;-1.80;72.60
68924;DHT22;55961;52.156;20.942;2024-03-08T02:23:30;-1.80;72.50
68924;DHT22;55961;52.156;20.942;2024-03-08T02:25:57;-1.80;72.20
68924;DHT22;55961;52.156;20.942;2024-03-08T02:28:23;-1.90;72.20
68924;DHT22;55961;52.156;20.942;2024-03-08T02:30:51;-1.90;72.60
68924;DHT22;55961;52.156;20.942;2024-03-08T02:33:18;-1.90;72.90
68924;DHT22;55961;52.156;20.942;2024-03-08T02:35:44;-1.90;72.60
68924;DHT22;55961;52.156;20.942;2024-03-08T02:38:14;-1.90;72.70
68924;DHT22;55961;52.156;20.942;2024-03-08T02:40:45;-1.90;72.70
68924;DHT22;55961;52.156;20.942;2024-03-08T02:43:12;-2.00;72.50
68924;DHT22;55961;52.156;20.942;2024-03-08T02:45:38;-2.00;72.60
68924;DHT22;55961;52.156;20.942;2024-03-08T02:48:05;-2.00;72.60
68924;DHT22;55961;52.156;20.942;2024-03-08T02:50:34;-2.00;72.40
68924;DHT22;55961;52.156;20.942;2024-03-08T02:53:03;-2.00;72.60
68924;DHT22;55961;52.156;20.942;2024-03-08T02:55:30;-2.00;72.70
68924;DHT22;55961;52.156;20.942;2024-03-08T02:57:56;-2.10;72.50
68924;DHT22;55961;52.156;20.942;2024-03-08T03:00:23;-2.10;73.10
68924;DHT22;55961;52.156;20.942;2024-03-08T03:02:50;-2.10;72.90
68924;DHT22;55961;52.156;20.942;2024-03-08T03:05:20;-2.10;72.80
68924;DHT22;55961;52.156;20.942;2024-03-08T03:07:46;-2.10;72.80
68924;DHT22;55961;52.156;20.942;2024-03-08T03:10:13;-2.20;72.70
68924;DHT22;55961;52.156;20.942;2024-03-08T03:12:42;-2.20;73.10
68924;DHT22;55961;52.156;20.942;2024-03-08T03:15:08;-2.20;73.10
68924;DHT22;55961;52.156;20.942;2024-03-08T03:17:34;-2.20;72.80
68924;DHT22;55961;52.156;20.942;2024-03-08T03:20:00;-2.30;72.80
68924;DHT22;55961;52.156;20.942;2024-03-08T03:22:35;-2.30;72.80
68924;DHT22;55961;52.156;20.942;2024-03-08T03:25:03;-2.30;73.40
68924;DHT22;55961;52.156;20.942;2024-03-08T03:27:30;-2.30;72.90
68924;DHT22;55961;52.156;20.942;2024-03-08T03:29:59;-2.30;73.20
68924;DHT22;55961;52.156;20.942;2024-03-08T03:32:45;-2.40;73.70
68924;DHT22;55961;52.156;20.942;2024-03-08T03:35:14;-2.40;73.40
68924;DHT22;55961;52.156;20.942;2024-03-08T03:37:41;-2.40;73.40
68924;DHT22;55961;52.156;20.942;2024-03-08T03:40:09;-2.40;73.40
68924;DHT22;55961;52.156;20.942;2024-03-08T03:42:35;-2.40;73.50
68924;DHT22;55961;52.156;20.942;2024-03-08T03:45:01;-2.50;73.50
68924;DHT22;55961;52.156;20.942;2024-03-08T03:47:28;-2.50;74.00
68924;DHT22;55961;52.156;20.942;2024-03-08T03:49:54;-2.50;74.00
68924;DHT22;55961;52.156;20.942;2024-03-08T03:52:20;-2.50;73.90
68924;DHT22;55961;52.156;20.942;2024-03-08T03:54:45;-2.50;73.80
68924;DHT22;55961;52.156;20.942;2024-03-08T03:57:12;-2.50;74.40
68924;DHT22;55961;52.156;20.942;2024-03-08T03:59:38;-2.50;74.20
68924;DHT22;55961;52.156;20.942;2024-03-08T04:02:04;-2.50;74.60
68924;DHT22;55961;52.156;20.942;2024-03-08T04:04:29;-2.50;74.10
68924;DHT22;55961;52.156;20.942;2024-03-08T04:06:55;-2.50;74.30
68924;DHT22;55961;52.156;20.942;2024-03-08T04:09:21;-2.50;74.30
68924;DHT22;55961;52.156;20.942;2024-03-08T04:11:48;-2.50;74.40
68924;DHT22;55961;52.156;20.942;2024-03-08T04:14:15;-2.60;74.40
68924;DHT22;55961;52.156;20.942;2024-03-08T04:16:41;-2.50;74.30
68924;DHT22;55961;52.156;20.942;2024-03-08T04:19:07;-2.60;74.20
68924;DHT22;55961;52.156;20.942;2024-03-08T04:21:34;-2.60;74.10
68924;DHT22;55961;52.156;20.942;2024-03-08T04:23:59;-2.60;74.20
68924;DHT22;55961;52.156;20.942;2024-03-08T04:26:26;-2.60;74.20
68924;DHT22;55961;52.156;20.942;2024-03-08T04:28:51;-2.60;74.40
68924;DHT22;55961;52.156;20.942;2024-03-08T04:31:17;-2.60;74.80
68924;DHT22;55961;52.156;20.942;2024-03-08T04:33:43;-2.70;74.80
68924;DHT22;55961;52.156;20.942;2024-03-08T04:36:10;-2.70;75.60
68924;DHT22;55961;52.156;20.942;2024-03-08T04:38:39;-2.70;75.60
68924;DHT22;55961;52.156;20.942;2024-03-08T04:41:07;-2.70;75.90
68924;DHT22;55961;52.156;20.942;2024-03-08T04:43:33;-2.70;75.90
68924;DHT22;55961;52.156;20.942;2024-03-08T04:46:00;-2.70;75.70
68924;DHT22;55961;52.156;20.942;2024-03-08T04:48:25;-2.70;75.90
68924;DHT22;55961;52.156;20.942;2024-03-08T04:50:54;-2.70;76.60
68924;DHT22;55961;52.156;20.942;2024-03-08T04:53:21;-2.70;76.20
68924;DHT22;55961;52.156;20.942;2024-03-08T04:55:47;-2.80;75.80
68924;DHT22;55961;52.156;20.942;2024-03-08T04:58:13;-2.70;75.90
68924;DHT22;55961;52.156;20.942;2024-03-08T05:00:39;-2.80;75.60
68924;DHT22;55961;52.156;20.942;2024-03-08T05:03:05;-2.80;75.50
68924;DHT22;55961;52.156;20.942;2024-03-08T05:05:31;-2.80;76.00
68924;DHT22;55961;52.156;20.942;2024-03-08T05:07:58;-2.80;75.90
68924;DHT22;55961;52.156;20.942;2024-03-08T05:10:24;-2.80;75.60
68924;DHT22;55961;52.156;20.942;2024-03-08T05:12:50;-2.80;75.50
68924;DHT22;55961;52.156;20.942;2024-03-08T05:15:16;-2.90;75.30
68924;DHT22;55961;52.156;20.942;2024-03-08T05:17:42;-2.90;75.40
68924;DHT22;55961;52.156;20.942;2024-03-08T05:20:08;-2.90;75.30
68924;DHT22;55961;52.156;20.942;2024-03-08T05:22:38;-2.90;75.30
68924;DHT22;55961;52.156;20.942;2024-03-08T05:25:04;-2.90;75.20
68924;DHT22;55961;52.156;20.942;2024-03-08T05:27:30;-2.90;76.00
68924;DHT22;55961;52.156;20.942;2024-03-08T05:29:55;-3.00;75.50
68924;DHT22;55961;52.156;20.942;2024-03-08T05:32:21;-2.90;75.80
68924;DHT22;55961;52.156;20.942;2024-03-08T05:34:47;-3.00;75.70
68924;DHT22;55961;52.156;20.942;2024-03-08T05:37:13;-2.90;75.70
68924;DHT22;55961;52.156;20.942;2024-03-08T05:39:39;-2.90;75.80
68924;DHT22;55961;52.156;20.942;2024-03-08T05:42:06;-2.90;75.70
68924;DHT22;55961;52.156;20.942;2024-03-08T05:44:34;-2.90;75.80
68924;DHT22;55961;52.156;20.942;2024-03-08T05:47:00;-2.90;75.70
68924;DHT22;55961;52.156;20.942;2024-03-08T05:49:26;-2.90;75.90
68924;DHT22;55961;52.156;20.942;2024-03-08T05:51:52;-2.90;76.60
68924;DHT22;55961;52.156;20.942;2024-03-08T05:54:19;-2.90;77.50
68924;DHT22;55961;52.156;20.942;2024-03-08T05:56:48;-2.90;77.30
68924;DHT22;55961;52.156;20.942;2024-03-08T05:59:14;-2.90;77.20
68924;DHT22;55961;52.156;20.942;2024-03-08T06:01:41;-2.80;77.90
68924;DHT22;55961;52.156;20.942;2024-03-08T06:04:07;-2.80;78.50
68924;DHT22;55961;52.156;20.942;2024-03-08T06:06:33;-2.80;80.80
68924;DHT22;55961;52.156;20.942;2024-03-08T06:08:59;-2.70;82.40
68924;DHT22;55961;52.156;20.942;2024-03-08T06:11:25;-2.70;82.90
68924;DHT22;55961;52.156;20.942;2024-03-08T06:13:56;-2.60;84.40
68924;DHT22;55961;52.156;20.942;2024-03-08T06:16:26;-2.60;85.60
68924;DHT22;55961;52.156;20.942;2024-03-08T06:18:57;-2.50;87.30
68924;DHT22;55961;52.156;20.942;2024-03-08T06:21:24;-2.40;87.30
68924;DHT22;55961;52.156;20.942;2024-03-08T06:23:54;-2.30;87.80
68924;DHT22;55961;52.156;20.942;2024-03-08T06:26:21;-2.20;87.90
68924;DHT22;55961;52.156;20.942;2024-03-08T06:28:48;-2.10;89.00
68924;DHT22;55961;52.156;20.942;2024-03-08T06:31:14;-2.00;89.10
68924;DHT22;55961;52.156;20.942;2024-03-08T06:33:40;-1.90;89.40
68924;DHT22;55961;52.156;20.942;2024-03-08T06:36:06;-1.70;89.50
68924;DHT22;55961;52.156;20.942;2024-03-08T06:38:33;-1.60;89.50
68924;DHT22;55961;52.156;20.942;2024-03-08T06:40:58;-1.50;89.60
68924;DHT22;55961;52.156;20.942;2024-03-08T06:43:24;-1.40;89.90
68924;DHT22;55961;52.156;20.942;2024-03-08T06:45:58;-1.20;89.60
68924;DHT22;55961;52.156;20.942;2024-03-08T06:48:24;-1.10;90.00
68924;DHT22;55961;52.156;20.942;2024-03-08T06:50:49;-0.90;90.20
68924;DHT22;55961;52.156;20.942;2024-03-08T06:53:16;-0.70;90.10
68924;DHT22;55961;52.156;20.942;2024-03-08T06:55:44;-0.50;89.70
68924;DHT22;55961;52.156;20.942;2024-03-08T06:58:11;-0.30;88.40
68924;DHT22;55961;52.156;20.942;2024-03-08T07:00:37;-0.20;86.60
68924;DHT22;55961;52.156;20.942;2024-03-08T07:03:03;-0.10;86.20
68924;DHT22;55961;52.156;20.942;2024-03-08T07:05:32;0.10;86.10
68924;DHT22;55961;52.156;20.942;2024-03-08T07:07:58;0.30;85.90
68924;DHT22;55961;52.156;20.942;2024-03-08T07:10:24;0.50;85.50
68924;DHT22;55961;52.156;20.942;2024-03-08T07:12:51;0.60;84.70
68924;DHT22;55961;52.156;20.942;2024-03-08T07:15:16;0.80;83.90
68924;DHT22;55961;52.156;20.942;2024-03-08T07:17:45;1.00;82.50
68924;DHT22;55961;52.156;20.942;2024-03-08T07:20:13;1.10;82.10
68924;DHT22;55961;52.156;20.942;2024-03-08T07:22:40;1.30;81.40
68924;DHT22;55961;52.156;20.942;2024-03-08T07:25:06;1.50;80.50
68924;DHT22;55961;52.156;20.942;2024-03-08T07:27:48;1.70;79.90
68924;DHT22;55961;52.156;20.942;2024-03-08T07:30:14;1.90;78.60
68924;DHT22;55961;52.156;20.942;2024-03-08T07:32:58;2.10;77.80
68924;DHT22;55961;52.156;20.942;2024-03-08T07:35:24;2.30;77.10
68924;DHT22;55961;52.156;20.942;2024-03-08T07:37:52;2.50;76.60
68924;DHT22;55961;52.156;20.942;2024-03-08T07:40:23;2.60;75.60
68924;DHT22;55961;52.156;20.942;2024-03-08T07:42:49;2.80;74.80
68924;DHT22;55961;52.156;20.942;2024-03-08T07:45:16;3.00;74.50
68924;DHT22;55961;52.156;20.942;2024-03-08T07:47:43;3.20;73.90
68924;DHT22;55961;52.156;20.942;2024-03-08T07:50:09;3.50;72.50
68924;DHT22;55961;52.156;20.942;2024-03-08T07:52:35;3.70;71.60
68924;DHT22;55961;52.156;20.942;2024-03-08T07:55:02;3.90;70.90
68924;DHT22;55961;52.156;20.942;2024-03-08T07:57:31;4.10;69.80
68924;DHT22;55961;52.156;20.942;2024-03-08T07:59:57;4.30;68.10
68924;DHT22;55961;52.156;20.942;2024-03-08T08:02:24;4.50;67.40
68924;DHT22;55961;52.156;20.942;2024-03-08T08:04:49;4.60;66.90
68924;DHT22;55961;52.156;20.942;2024-03-08T08:07:15;4.90;66.50
68924;DHT22;55961;52.156;20.942;2024-03-08T08:09:41;5.10;66.00
68924;DHT22;55961;52.156;20.942;2024-03-08T08:12:09;5.30;65.80
68924;DHT22;55961;52.156;20.942;2024-03-08T08:14:41;5.40;64.90
68924;DHT22;55961;52.156;20.942;2024-03-08T08:17:07;5.60;63.10
68924;DHT22;55961;52.156;20.942;2024-03-08T08:19:34;5.80;62.30
68924;DHT22;55961;52.156;20.942;2024-03-08T08:22:04;6.00;62.40
68924;DHT22;55961;52.156;20.942;2024-03-08T08:24:31;6.20;60.80
68924;DHT22;55961;52.156;20.942;2024-03-08T08:26:56;6.40;59.90
68924;DHT22;55961;52.156;20.942;2024-03-08T08:29:22;6.50;58.90
68924;DHT22;55961;52.156;20.942;2024-03-08T08:31:49;6.70;58.50
68924;DHT22;55961;52.156;20.942;2024-03-08T08:34:16;6.80;57.70
68924;DHT22;55961;52.156;20.942;2024-03-08T08:36:45;6.90;57.60
68924;DHT22;55961;52.156;20.942;2024-03-08T08:39:11;7.10;57.00
68924;DHT22;55961;52.156;20.942;2024-03-08T08:41:40;7.20;56.70
68924;DHT22;55961;52.156;20.942;2024-03-08T08:44:07;7.40;56.30
68924;DHT22;55961;52.156;20.942;2024-03-08T08:46:36;7.50;55.20
68924;DHT22;55961;52.156;20.942;2024-03-08T08:49:03;7.60;54.00
68924;DHT22;55961;52.156;20.942;2024-03-08T08:51:30;7.80;53.50
68924;DHT22;55961;52.156;20.942;2024-03-08T08:53:59;7.90;53.90
68924;DHT22;55961;52.156;20.942;2024-03-08T08:56:25;8.10;53.10
68924;DHT22;55961;52.156;20.942;2024-03-08T08:58:52;8.30;52.70
68924;DHT22;55961;52.156;20.942;2024-03-08T09:01:19;8.40;51.60
68924;DHT22;55961;52.156;20.942;2024-03-08T09:03:45;8.50;49.50
68924;DHT22;55961;52.156;20.942;2024-03-08T09:06:16;8.70;49.00
68924;DHT22;55961;52.156;20.942;2024-03-08T09:08:42;8.90;48.10
68924;DHT22;55961;52.156;20.942;2024-03-08T09:11:10;9.00;47.40
68924;DHT22;55961;52.156;20.942;2024-03-08T09:13:36;9.20;47.10
68924;DHT22;55961;52.156;20.942;2024-03-08T09:16:02;9.30;47.20
68924;DHT22;55961;52.156;20.942;2024-03-08T09:18:31;9.40;47.30
68924;DHT22;55961;52.156;20.942;2024-03-08T09:21:01;9.50;47.50
68924;DHT22;55961;52.156;20.942;2024-03-08T09:23:26;9.70;45.70
68924;DHT22;55961;52.156;20.942;2024-03-08T09:25:59;9.80;45.30
68924;DHT22;55961;52.156;20.942;2024-03-08T09:28:24;9.90;45.60
68924;DHT22;55961;52.156;20.942;2024-03-08T09:30:50;10.00;46.00
68924;DHT22;55961;52.156;20.942;2024-03-08T09:33:16;10.10;46.20
68924;DHT22;55961;52.156;20.942;2024-03-08T09:35:46;10.30;45.70
68924;DHT22;55961;52.156;20.942;2024-03-08T09:38:14;10.30;44.70
68924;DHT22;55961;52.156;20.942;2024-03-08T09:40:44;10.40;45.20
68924;DHT22;55961;52.156;20.942;2024-03-08T09:43:10;10.50;45.30
68924;DHT22;55961;52.156;20.942;2024-03-08T09:45:40;10.50;44.50
68924;DHT22;55961;52.156;20.942;2024-03-08T09:48:10;10.50;43.30
68924;DHT22;55961;52.156;20.942;2024-03-08T09:50:40;10.50;44.10
68924;DHT22;55961;52.156;20.942;2024-03-08T09:53:09;10.40;44.20
68924;DHT22;55961;52.156;20.942;2024-03-08T09:55:38;10.20;44.10
68924;DHT22;55961;52.156;20.942;2024-03-08T09:58:08;10.20;45.00
68924;DHT22;55961;52.156;20.942;2024-03-08T10:00:54;10.30;45.10
68924;DHT22;55961;52.156;20.942;2024-03-08T10:03:23;10.40;44.90
68924;DHT22;55961;52.156;20.942;2024-03-08T10:05:52;10.50;44.40
68924;DHT22;55961;52.156;20.942;2024-03-08T10:08:17;10.60;44.10
68924;DHT22;55961;52.156;20.942;2024-03-08T10:10:43;10.70;43.70
68924;DHT22;55961;52.156;20.942;2024-03-08T10:13:10;10.90;44.00
68924;DHT22;55961;52.156;20.942;2024-03-08T10:15:37;11.00;42.50
68924;DHT22;55961;52.156;20.942;2024-03-08T10:18:04;10.90;42.50
68924;DHT22;55961;52.156;20.942;2024-03-08T10:20:31;10.90;43.30
68924;DHT22;55961;52.156;20.942;2024-03-08T10:23:03;11.00;43.60
68924;DHT22;55961;52.156;20.942;2024-03-08T10:25:31;11.10;42.70
68924;DHT22;55961;52.156;20.942;2024-03-08T10:27:57;11.10;43.20
68924;DHT22;55961;52.156;20.942;2024-03-08T10:30:23;11.10;42.50
68924;DHT22;55961;52.156;20.942;2024-03-08T10:32:49;11.20;42.80
68924;DHT22;55961;52.156;20.942;2024-03-08T10:35:17;11.20;42.70
68924;DHT22;55961;52.156;20.942;2024-03-08T10:37:51;11.30;42.70
68924;DHT22;55961;52.156;20.942;2024-03-08T10:40:27;11.40;41.90
68924;DHT22;55961;52.156;20.942;2024-03-08T10:42:58;11.50;42.10
68924;DHT22;55961;52.156;20.942;2024-03-08T10:48:25;11.70;41.50
68924;DHT22;55961;52.156;20.942;2024-03-08T10:50:54;11.90;40.20
68924;DHT22;55961;52.156;20.942;2024-03-08T10:53:20;11.80;41.00
68924;DHT22;55961;52.156;20.942;2024-03-08T10:55:47;11.80;40.30
68924;DHT22;55961;52.156;20.942;2024-03-08T10:58:16;11.70;40.70
68924;DHT22;55961;52.156;20.942;2024-03-08T11:00:42;11.60;40.50
68924;DHT22;55961;52.156;20.942;2024-03-08T11:06:18;11.70;41.40
68924;DHT22;55961;52.156;20.942;2024-03-08T11:08:48;11.90;41.20
68924;DHT22;55961;52.156;20.942;2024-03-08T11:11:32;12.00;40.60
68924;DHT22;55961;52.156;20.942;2024-03-08T11:14:01;12.20;39.40
68924;DHT22;55961;52.156;20.942;2024-03-08T11:19:05;12.50;39.90
68924;DHT22;55961;52.156;20.942;2024-03-08T11:21:32;12.70;39.60
68924;DHT22;55961;52.156;20.942;2024-03-08T11:24:10;12.80;39.20
68924;DHT22;55961;52.156;20.942;2024-03-08T11:26:40;12.90;38.80
68924;DHT22;55961;52.156;20.942;2024-03-08T11:32:18;12.90;38.40
68924;DHT22;55961;52.156;20.942;2024-03-08T11:34:48;12.90;39.20
68924;DHT22;55961;52.156;20.942;2024-03-08T11:37:19;12.90;38.00
68924;DHT22;55961;52.156;20.942;2024-03-08T11:39:51;12.90;39.20
68924;DHT22;55961;52.156;20.942;2024-03-08T11:42:18;13.00;39.00
68924;DHT22;55961;52.156;20.942;2024-03-08T11:44:45;13.00;38.50
68924;DHT22;55961;52.156;20.942;2024-03-08T11:47:12;13.00;38.30
68924;DHT22;55961;52.156;20.942;2024-03-08T11:49:40;13.00;38.20
68924;DHT22;55961;52.156;20.942;2024-03-08T11:52:17;13.00;37.20
68924;DHT22;55961;52.156;20.942;2024-03-08T11:54:48;12.90;36.90
68924;DHT22;55961;52.156;20.942;2024-03-08T11:57:18;12.90;36.70
68924;DHT22;55961;52.156;20.942;2024-03-08T11:59:54;12.70;37.20
68924;DHT22;55961;52.156;20.942;2024-03-08T12:02:22;12.70;38.10
68924;DHT22;55961;52.156;20.942;2024-03-08T12:04:56;12.70;38.60
68924;DHT22;55961;52.156;20.942;2024-03-08T12:07:23;12.90;38.30
68924;DHT22;55961;52.156;20.942;2024-03-08T12:10:14;13.10;37.70
68924;DHT22;55961;52.156;20.942;2024-03-08T12:12:47;13.20;37.30
68924;DHT22;55961;52.156;20.942;2024-03-08T12:15:15;13.20;37.40
68924;DHT22;55961;52.156;20.942;2024-03-08T12:17:41;13.10;36.60
68924;DHT22;55961;52.156;20.942;2024-03-08T12:20:16;13.10;37.20
68924;DHT22;55961;52.156;20.942;2024-03-08T12:22:43;13.20;37.10
68924;DHT22;55961;52.156;20.942;2024-03-08T12:25:11;13.30;37.20
68924;DHT22;55961;52.156;20.942;2024-03-08T12:27:38;13.40;36.70
68924;DHT22;55961;52.156;20.942;2024-03-08T12:30:18;13.50;36.60
68924;DHT22;55961;52.156;20.942;2024-03-08T12:32:58;13.50;36.00
68924;DHT22;55961;52.156;20.942;2024-03-08T12:35:26;13.40;36.40
68924;DHT22;55961;52.156;20.942;2024-03-08T12:37:53;13.40;36.20
68924;DHT22;55961;52.156;20.942;2024-03-08T12:40:30;13.40;36.40
68924;DHT22;55961;52.156;20.942;2024-03-08T12:43:01;13.50;37.10
68924;DHT22;55961;52.156;20.942;2024-03-08T12:45:28;13.60;36.50
68924;DHT22;55961;52.156;20.942;2024-03-08T12:47:56;13.60;35.00
68924;DHT22;55961;52.156;20.942;2024-03-08T12:50:22;13.60;35.50
68924;DHT22;55961;52.156;20.942;2024-03-08T12:52:49;13.70;36.70
68924;DHT22;55961;52.156;20.942;2024-03-08T12:55:15;13.80;36.00
68924;DHT22;55961;52.156;20.942;2024-03-08T12:57:42;13.90;35.70
68924;DHT22;55961;52.156;20.942;2024-03-08T13:00:08;13.90;35.20
68924;DHT22;55961;52.156;20.942;2024-03-08T13:02:49;14.00;35.60
68924;DHT22;55961;52.156;20.942;2024-03-08T13:05:16;14.00;35.60
68924;DHT22;55961;52.156;20.942;2024-03-08T13:07:43;14.00;34.80
68924;DHT22;55961;52.156;20.942;2024-03-08T13:10:15;14.00;35.90
68924;DHT22;55961;52.156;20.942;2024-03-08T13:12:44;13.90;35.20
68924;DHT22;55961;52.156;20.942;2024-03-08T13:15:11;13.80;35.50
68924;DHT22;55961;52.156;20.942;2024-03-08T13:17:40;13.70;34.90
68924;DHT22;55961;52.156;20.942;2024-03-08T13:20:09;13.60;35.40
68924;DHT22;55961;52.156;20.942;2024-03-08T13:22:42;13.60;35.20
68924;DHT22;55961;52.156;20.942;2024-03-08T13:25:08;13.60;35.30
68924;DHT22;55961;52.156;20.942;2024-03-08T13:27:40;13.50;35.20
68924;DHT22;55961;52.156;20.942;2024-03-08T13:30:09;13.50;35.60
68924;DHT22;55961;52.156;20.942;2024-03-08T13:32:40;13.50;35.20
68924;DHT22;55961;52.156;20.942;2024-03-08T13:35:09;13.50;36.10
68924;DHT22;55961;52.156;20.942;2024-03-08T13:37:39;13.50;36.40
68924;DHT22;55961;52.156;20.942;2024-03-08T13:40:06;13.60;36.00
68924;DHT22;55961;52.156;20.942;2024-03-08T13:42:40;13.70;35.50
68924;DHT22;55961;52.156;20.942;2024-03-08T13:45:08;13.60;35.50
68924;DHT22;55961;52.156;20.942;2024-03-08T13:47:41;13.70;35.40
68924;DHT22;55961;52.156;20.942;2024-03-08T13:50:08;13.70;35.10
68924;DHT22;55961;52.156;20.942;2024-03-08T13:52:38;13.70;35.00
68924;DHT22;55961;52.156;20.942;2024-03-08T13:55:05;13.70;34.50
68924;DHT22;55961;52.156;20.942;2024-03-08T13:57:32;13.60;34.90
68924;DHT22;55961;52.156;20.942;2024-03-08T13:59:59;13.50;34.50
68924;DHT22;55961;52.156;20.942;2024-03-08T14:02:25;13.30;35.30
68924;DHT22;55961;52.156;20.942;2024-03-08T14:04:54;13.30;35.30
68924;DHT22;55961;52.156;20.942;2024-03-08T14:07:23;13.20;35.40
68924;DHT22;55961;52.156;20.942;2024-03-08T14:09:49;13.20;36.10
68924;DHT22;55961;52.156;20.942;2024-03-08T14:12:15;13.20;35.50
68924;DHT22;55961;52.156;20.942;2024-03-08T14:14:41;13.20;35.70
68924;DHT22;55961;52.156;20.942;2024-03-08T14:17:10;13.20;36.20
68924;DHT22;55961;52.156;20.942;2024-03-08T14:19:37;13.30;36.30
68924;DHT22;55961;52.156;20.942;2024-03-08T14:22:05;13.20;35.60
68924;DHT22;55961;52.156;20.942;2024-03-08T14:24:31;13.10;35.80
68924;DHT22;55961;52.156;20.942;2024-03-08T14:26:57;13.10;35.40
68924;DHT22;55961;52.156;20.942;2024-03-08T14:29:27;13.00;35.70
68924;DHT22;55961;52.156;20.942;2024-03-08T14:31:58;13.00;35.30
68924;DHT22;55961;52.156;20.942;2024-03-08T14:34:25;12.90;35.30
68924;DHT22;55961;52.156;20.942;2024-03-08T14:36:55;12.70;34.70
68924;DHT22;55961;52.156;20.942;2024-03-08T14:39:21;12.60;35.80
68924;DHT22;55961;52.156;20.942;2024-03-08T14:41:52;12.40;35.10
68924;DHT22;55961;52.156;20.942;2024-03-08T14:44:23;12.30;35.70
68924;DHT22;55961;52.156;20.942;2024-03-08T14:46:53;12.30;36.10
68924;DHT22;55961;52.156;20.942;2024-03-08T14:49:18;12.30;36.80
68924;DHT22;55961;52.156;20.942;2024-03-08T14:51:45;12.30;36.60
68924;DHT22;55961;52.156;20.942;2024-03-08T14:54:10;12.30;36.00
68924;DHT22;55961;52.156;20.942;2024-03-08T14:56:37;12.30;36.30
68924;DHT22;55961;52.156;20.942;2024-03-08T14:59:03;12.20;36.30
68924;DHT22;55961;52.156;20.942;2024-03-08T15:01:30;12.20;35.60
68924;DHT22;55961;52.156;20.942;2024-03-08T15:03:58;12.10;35.90
68924;DHT22;55961;52.156;20.942;2024-03-08T15:06:41;12.10;36.20
68924;DHT22;55961;52.156;20.942;2024-03-08T15:09:08;12.10;36.50
68924;DHT22;55961;52.156;20.942;2024-03-08T15:11:47;12.00;35.90
68924;DHT22;55961;52.156;20.942;2024-03-08T15:14:14;12.00;35.80
68924;DHT22;55961;52.156;20.942;2024-03-08T15:16:41;11.90;35.90
68924;DHT22;55961;52.156;20.942;2024-03-08T15:19:09;11.80;36.30
68924;DHT22;55961;52.156;20.942;2024-03-08T15:21:35;11.80;36.40
68924;DHT22;55961;52.156;20.942;2024-03-08T15:24:05;11.70;35.50
68924;DHT22;55961;52.156;20.942;2024-03-08T15:26:52;11.60;36.40
68924;DHT22;55961;52.156;20.942;2024-03-08T15:29:20;11.50;35.70
68924;DHT22;55961;52.156;20.942;2024-03-08T15:31:53;11.40;36.50
68924;DHT22;55961;52.156;20.942;2024-03-08T15:34:20;11.40;36.40